Time;durP1;ratioP1;P1;durP2;ratioP2;P2;SDS_P1;SDS_P2;PMS_P1;PMS_P2;Temp;Humidity;BMP_temperature;BMP_pressure;BME280_temperature;BME280_humidity;BME280_pressure;Samples;Min_cycle;Max_cycle;Signal;HPM_P1;HPM_P2
2021/12/29 00:00:29;;;;;;;48.40;28.58;;;0.70;99.90;;;;;;4990901;28;20081;-67
2021/12/29 00:03:00;;;;;;;46.75;27.65;;;0.70;99.90;;;;;;4993203;28;20065;-65
2021/12/29 00:05:28;;;;;;;45.55;29.92;;;0.70;99.90;;;;;;4993739;28;20716;-67
2021/12/29 00:07:55;;;;;;;44.40;29.67;;;0.70;99.90;;;;;;4994690;28;20064;-68
2021/12/29 00:10:23;;;;;;;52.35;30.38;;;0.70;99.90;;;;;;4995544;28;20085;-65
2021/12/29 00:12:52;;;;;;;49.33;31.15;;;0.70;99.90;;;;;;4998369;28;20157;-65
2021/12/29 00:15:25;;;;;;;51.78;31.20;;;0.70;99.90;;;;;;4996224;28;20419;-67
2021/12/29 00:17:53;;;;;;;46.83;28.58;;;0.70;99.90;;;;;;4997290;28;21447;-65
2021/12/29 00:20:24;;;;;;;50.80;29.90;;;0.70;99.90;;;;;;4995246;28;20133;-66
2021/12/29 00:22:51;;;;;;;48.67;27.65;;;0.70;99.90;;;;;;4996407;28;20048;-64
2021/12/29 00:25:18;;;;;;;49.25;27.63;;;0.70;99.90;;;;;;4995002;28;21659;-66
2021/12/29 00:27:45;;;;;;;50.00;28.95;;;0.70;99.90;;;;;;4996537;28;20057;-67
2021/12/29 00:30:13;;;;;;;49.88;28.83;;;0.70;99.90;;;;;;4997853;28;20157;-69
2021/12/29 00:32:56;;;;;;;48.83;29.20;;;0.70;99.90;;;;;;4996885;28;20050;-68
2021/12/29 00:35:43;;;;;;;44.38;28.17;;;0.70;99.90;;;;;;4997670;28;20141;-69
2021/12/29 00:38:48;;;;;;;45.00;26.45;;;0.70;99.90;;;;;;4940494;28;20114;-66
2021/12/29 00:41:47;;;;;;;46.75;27.40;;;0.70;99.90;;;;;;4939810;28;20051;-69
2021/12/29 00:44:34;;;;;;;47.80;27.42;;;0.70;99.90;;;;;;4977026;28;20691;-70
2021/12/29 00:47:12;;;;;;;53.33;30.50;;;0.70;99.90;;;;;;4980422;28;20045;-68
2021/12/29 00:49:40;;;;;;;51.13;31.15;;;0.70;99.90;;;;;;4996106;28;20066;-67
2021/12/29 00:52:09;;;;;;;48.80;30.88;;;0.60;99.90;;;;;;4997681;28;20072;-68
2021/12/29 00:54:38;;;;;;;60.63;34.47;;;0.60;99.90;;;;;;4994643;28;20054;-69
2021/12/29 00:57:06;;;;;;;42.95;29.70;;;0.70;99.90;;;;;;4995699;28;21385;-69
2021/12/29 00:59:33;;;;;;;55.92;32.85;;;0.60;99.90;;;;;;4992580;28;20612;-67
2021/12/29 01:02:00;;;;;;;50.42;31.30;;;0.60;99.90;;;;;;4997280;28;20053;-69
2021/12/29 01:04:27;;;;;;;53.42;31.08;;;0.70;99.90;;;;;;4996119;28;20053;-70
2021/12/29 01:06:54;;;;;;;45.40;31.67;;;0.70;99.90;;;;;;4997052;28;20098;-66
2021/12/29 01:09:21;;;;;;;56.30;32.30;;;0.70;99.90;;;;;;4998433;28;20124;-67
2021/12/29 01:11:48;;;;;;;51.28;30.60;;;0.70;99.90;;;;;;4996755;28;20072;-70
2021/12/29 01:14:21;;;;;;;56.67;35.00;;;0.60;99.90;;;;;;4993493;28;20131;-67
2021/12/29 01:16:52;;;;;;;49.28;30.17;;;0.70;99.90;;;;;;4994162;28;20052;-67
2021/12/29 01:19:27;;;;;;;52.10;30.38;;;0.70;99.90;;;;;;4995513;28;20388;-69
2021/12/29 01:21:56;;;;;;;63.55;34.10;;;0.70;99.90;;;;;;4997548;28;20050;-65
2021/12/29 01:24:26;;;;;;;44.60;25.75;;;0.60;99.90;;;;;;4994935;28;21304;-68
2021/12/29 01:26:55;;;;;;;57.22;33.25;;;0.60;99.90;;;;;;4997089;28;20475;-72
2021/12/29 01:29:23;;;;;;;50.00;33.58;;;0.70;99.90;;;;;;4996230;28;20123;-67
2021/12/29 01:31:50;;;;;;;54.83;32.88;;;0.70;99.90;;;;;;4997118;28;20123;-70
2021/12/29 01:34:17;;;;;;;58.53;32.63;;;0.60;99.90;;;;;;4994175;28;20627;-68
2021/12/29 01:36:44;;;;;;;56.97;33.10;;;0.70;99.90;;;;;;4995524;28;20065;-70
2021/12/29 01:39:15;;;;;;;53.72;31.90;;;0.70;99.90;;;;;;4994829;28;20540;-70
2021/12/29 01:41:45;;;;;;;54.13;33.67;;;0.70;99.90;;;;;;4994891;28;20046;-68
2021/12/29 01:44:13;;;;;;;52.42;31.83;;;0.70;99.90;;;;;;4996846;28;20171;-66
2021/12/29 01:46:42;;;;;;;48.67;31.60;;;0.80;99.90;;;;;;4994357;28;20121;-66
2021/12/29 01:49:10;;;;;;;55.63;32.45;;;0.70;99.90;;;;;;4997055;28;20131;-65
2021/12/29 01:51:42;;;;;;;59.97;35.22;;;0.70;99.90;;;;;;4995002;28;20214;-68
2021/12/29 01:54:23;;;;;;;54.10;30.88;;;0.80;99.90;;;;;;4995817;28;20088;-67
2021/12/29 01:56:53;;;;;;;60.80;34.30;;;0.80;99.90;;;;;;4995281;28;20817;-65
2021/12/29 01:59:23;;;;;;;58.15;34.70;;;0.80;99.90;;;;;;4995493;28;20053;-66
2021/12/29 02:01:50;;;;;;;65.05;33.90;;;0.80;99.90;;;;;;4995474;28;20072;-66
2021/12/29 02:04:17;;;;;;;58.80;34.53;;;0.80;99.90;;;;;;4997110;28;20046;-68
2021/12/29 02:06:45;;;;;;;54.83;33.00;;;0.80;99.90;;;;;;4993449;28;20125;-69
2021/12/29 02:09:12;;;;;;;58.97;35.58;;;0.80;99.90;;;;;;4995766;28;20052;-69
2021/12/29 02:11:42;;;;;;;53.15;34.63;;;0.80;99.90;;;;;;4993705;28;20065;-67
2021/12/29 02:14:10;;;;;;;40.80;26.13;;;0.80;99.90;;;;;;4994876;28;20061;-68
2021/12/29 02:16:37;;;;;;;60.25;32.75;;;0.80;99.90;;;;;;4991531;28;20081;-66
2021/12/29 02:19:08;;;;;;;52.00;31.83;;;0.80;99.90;;;;;;4995653;28;21505;-65
2021/12/29 02:21:37;;;;;;;57.05;31.42;;;0.80;99.90;;;;;;4995232;28;20050;-67
2021/12/29 02:26:39;;;;;;;56.80;30.02;;;0.90;99.90;;;;;;4994908;28;20123;-68
2021/12/29 02:29:12;;;;;;;49.58;30.92;;;0.80;99.90;;;;;;4995806;28;20684;-66
2021/12/29 02:31:40;;;;;;;49.00;28.23;;;0.90;99.90;;;;;;4996646;28;20061;-67
2021/12/29 02:34:10;;;;;;;43.17;28.65;;;0.90;99.90;;;;;;4995000;28;20049;-66
2021/12/29 02:36:43;;;;;;;47.75;25.55;;;0.90;99.90;;;;;;4993740;28;20054;-66
2021/12/29 02:39:13;;;;;;;48.30;28.60;;;0.90;99.90;;;;;;4992973;28;20058;-67
2021/12/29 02:41:44;;;;;;;42.22;26.15;;;0.90;99.90;;;;;;4994992;28;20069;-66
2021/12/29 02:44:17;;;;;;;44.03;25.10;;;0.90;99.90;;;;;;4994373;28;20135;-70
2021/12/29 02:46:44;;;;;;;43.10;25.15;;;0.90;99.90;;;;;;4992355;28;20077;-64
2021/12/29 02:49:11;;;;;;;47.13;28.00;;;0.90;99.90;;;;;;5009582;28;20052;-65
2021/12/29 02:51:39;;;;;;;38.53;26.02;;;0.90;99.90;;;;;;4993133;28;20058;-68
2021/12/29 02:54:06;;;;;;;44.13;28.13;;;0.90;99.90;;;;;;4991706;28;20156;-67
2021/12/29 02:56:34;;;;;;;38.83;25.48;;;1.00;99.90;;;;;;4987832;28;20197;-68
2021/12/29 02:59:01;;;;;;;44.17;27.70;;;0.90;99.90;;;;;;4991805;28;20641;-65
2021/12/29 03:01:29;;;;;;;44.70;26.75;;;1.00;99.90;;;;;;4989036;28;20046;-67
2021/12/29 03:03:58;;;;;;;44.42;23.85;;;1.00;99.90;;;;;;4993115;28;20053;-68
2021/12/29 03:06:26;;;;;;;35.15;23.13;;;1.00;99.90;;;;;;4987572;28;20053;-68
2021/12/29 03:08:54;;;;;;;33.20;21.42;;;1.00;99.90;;;;;;4991238;28;20057;-69
2021/12/29 03:11:22;;;;;;;31.90;21.05;;;1.00;99.90;;;;;;4992515;28;20069;-69
2021/12/29 03:13:49;;;;;;;32.13;22.15;;;1.00;99.90;;;;;;4988148;28;20081;-69
2021/12/29 03:16:16;;;;;;;28.73;21.25;;;1.00;99.90;;;;;;4991327;28;20064;-68
2021/12/29 03:18:43;;;;;;;34.20;20.58;;;1.00;99.90;;;;;;4988917;28;21018;-68
2021/12/29 03:21:11;;;;;;;27.95;20.67;;;1.00;99.90;;;;;;4988483;28;20054;-71
2021/12/29 03:23:39;;;;;;;35.50;20.63;;;1.00;99.90;;;;;;4990002;28;20144;-65
2021/12/29 03:26:09;;;;;;;31.20;19.95;;;1.00;99.90;;;;;;4990733;28;20053;-67
2021/12/29 03:28:37;;;;;;;30.58;20.77;;;1.00;99.90;;;;;;4989571;28;20057;-67
2021/12/29 03:31:05;;;;;;;29.88;19.60;;;1.00;99.90;;;;;;4990768;28;20178;-68
2021/12/29 03:33:33;;;;;;;30.70;19.02;;;1.00;99.90;;;;;;4993448;28;20054;-65
2021/12/29 03:36:03;;;;;;;28.90;18.67;;;1.00;99.90;;;;;;4990563;28;21147;-65
2021/12/29 03:38:33;;;;;;;27.83;19.50;;;1.00;99.90;;;;;;4990434;28;20066;-68
2021/12/29 03:41:01;;;;;;;29.30;19.98;;;1.00;99.90;;;;;;4992601;28;20058;-67
2021/12/29 03:43:29;;;;;;;30.75;20.80;;;1.10;99.90;;;;;;4990551;28;20156;-66
2021/12/29 03:45:56;;;;;;;31.25;20.55;;;1.00;99.90;;;;;;4991484;28;20131;-66
2021/12/29 03:48:25;;;;;;;31.88;20.30;;;1.00;99.90;;;;;;4989451;28;20049;-65
2021/12/29 03:50:53;;;;;;;33.55;21.25;;;1.00;99.90;;;;;;4992410;28;21027;-66
2021/12/29 03:53:21;;;;;;;45.63;25.30;;;1.00;99.90;;;;;;4992589;28;20140;-67
2021/12/29 03:55:50;;;;;;;33.42;21.60;;;1.00;99.90;;;;;;4990819;28;20050;-68
2021/12/29 03:58:19;;;;;;;34.20;22.55;;;1.00;99.90;;;;;;4989979;28;20447;-68
2021/12/29 04:00:48;;;;;;;36.47;22.13;;;1.10;99.90;;;;;;4991485;28;20145;-65
2021/12/29 04:03:15;;;;;;;36.50;24.40;;;1.00;99.90;;;;;;4992214;28;20054;-66
2021/12/29 04:05:45;;;;;;;35.30;23.83;;;1.00;99.90;;;;;;4989428;28;20069;-69
2021/12/29 04:08:13;;;;;;;40.00;24.63;;;1.00;99.90;;;;;;4989476;28;20144;-65
2021/12/29 04:10:40;;;;;;;34.15;24.80;;;1.00;99.90;;;;;;4989635;28;20185;-69
2021/12/29 04:13:06;;;;;;;35.80;23.75;;;1.00;99.90;;;;;;4987545;28;20173;-67
2021/12/29 04:15:34;;;;;;;40.53;24.08;;;1.00;99.90;;;;;;4986553;28;20057;-71
2021/12/29 04:18:03;;;;;;;37.40;25.60;;;1.00;99.90;;;;;;4987426;28;20675;-65
2021/12/29 04:23:19;;;;;;;31.35;19.85;;;1.00;99.90;;;;;;4990469;28;20066;-67
2021/12/29 04:25:50;;;;;;;38.47;25.52;;;1.00;99.90;;;;;;4987626;28;20065;-67
2021/12/29 04:28:20;;;;;;;35.67;24.67;;;1.00;99.90;;;;;;4988360;28;20131;-68
2021/12/29 04:30:48;;;;;;;;;;;1.00;99.90;;;;;;4987399;28;20104;-67
2021/12/29 04:33:17;;;;;;;41.85;27.85;;;1.00;99.90;;;;;;4988633;28;20041;-69
2021/12/29 04:35:46;;;;;;;37.45;26.27;;;1.00;99.90;;;;;;4990658;28;20471;-69
2021/12/29 04:38:13;;;;;;;32.88;24.50;;;1.00;99.90;;;;;;4985776;28;20050;-67
2021/12/29 04:40:40;;;;;;;44.50;27.05;;;1.00;99.90;;;;;;4986839;28;21266;-66
2021/12/29 04:43:07;;;;;;;39.05;25.10;;;1.00;99.90;;;;;;4987923;28;20113;-68
2021/12/29 04:45:34;;;;;;;44.15;26.77;;;1.00;99.90;;;;;;4990937;28;20077;-66
2021/12/29 04:48:01;;;;;;;40.38;26.95;;;1.00;99.90;;;;;;4986713;28;20046;-66
2021/12/29 04:50:36;;;;;;;39.38;28.17;;;1.00;99.90;;;;;;4988243;28;20149;-69
2021/12/29 04:53:04;;;;;;;42.13;29.80;;;1.00;99.90;;;;;;4989786;28;20108;-65
2021/12/29 04:55:32;;;;;;;44.05;28.25;;;0.90;99.90;;;;;;4990632;28;20367;-68
2021/12/29 04:58:00;;;;;;;47.13;27.42;;;0.90;99.90;;;;;;4992758;28;20108;-68
2021/12/29 05:00:30;;;;;;;37.88;26.67;;;1.00;99.90;;;;;;4989950;28;20880;-66
2021/12/29 05:02:58;;;;;;;43.58;28.27;;;0.90;99.90;;;;;;4994109;28;20156;-68
2021/12/29 05:10:46;;;;;;;41.28;25.88;;;0.90;99.90;;;;;;4992022;28;20125;-67
2021/12/29 05:13:14;;;;;;;39.17;26.23;;;0.90;99.90;;;;;;4990468;28;20081;-68
2021/12/29 05:15:42;;;;;;;43.45;27.67;;;0.90;99.90;;;;;;4990360;28;20704;-72
2021/12/29 05:18:09;;;;;;;42.50;26.50;;;0.90;99.90;;;;;;4988787;28;20588;-67
2021/12/29 05:20:37;;;;;;;42.38;27.23;;;0.90;99.90;;;;;;4987084;28;20695;-65
2021/12/29 05:23:06;;;;;;;40.03;27.23;;;0.90;99.90;;;;;;4988270;28;20049;-69
2021/12/29 05:25:33;;;;;;;36.70;25.60;;;0.90;99.90;;;;;;4990146;28;20216;-67
2021/12/29 05:28:00;;;;;;;42.35;28.10;;;0.90;99.90;;;;;;4989297;28;20092;-65
2021/12/29 05:30:27;;;;;;;41.33;27.77;;;0.90;99.90;;;;;;4987552;28;20464;-67
2021/12/29 05:32:54;;;;;;;41.08;28.08;;;0.90;99.90;;;;;;4988871;28;20168;-65
2021/12/29 05:35:26;;;;;;;45.17;28.10;;;0.90;99.90;;;;;;4989879;28;20491;-68
2021/12/29 05:37:54;;;;;;;43.20;27.30;;;0.90;99.90;;;;;;4988836;28;20140;-67
2021/12/29 05:40:22;;;;;;;42.03;27.00;;;0.90;99.90;;;;;;4985981;28;20093;-67
2021/12/29 05:42:50;;;;;;;41.13;26.20;;;0.90;99.90;;;;;;4989439;28;20312;-68
2021/12/29 05:45:17;;;;;;;47.33;28.77;;;0.90;99.90;;;;;;4988628;28;20185;-68
2021/12/29 05:47:45;;;;;;;46.80;29.23;;;0.90;99.90;;;;;;4988461;28;20045;-68
2021/12/29 05:50:15;;;;;;;46.17;28.13;;;0.90;99.90;;;;;;4991104;28;20168;-68
2021/12/29 05:52:42;;;;;;;45.95;28.67;;;0.90;99.90;;;;;;4990496;28;20137;-67
2021/12/29 05:55:10;;;;;;;51.92;30.67;;;0.90;99.90;;;;;;4991818;28;20551;-67
2021/12/29 05:57:37;;;;;;;43.75;29.85;;;0.90;99.90;;;;;;4989778;28;20139;-71
2021/12/29 06:00:08;;;;;;;48.85;29.20;;;0.90;99.90;;;;;;4991207;28;20228;-66
2021/12/29 06:02:35;;;;;;;49.80;30.58;;;0.90;99.90;;;;;;4988026;28;20515;-70
2021/12/29 06:05:04;;;;;;;43.45;27.15;;;0.90;99.90;;;;;;4992139;28;20041;-68
2021/12/29 06:07:31;;;;;;;46.03;28.70;;;0.90;99.90;;;;;;4991406;28;20454;-67
2021/12/29 06:09:57;;;;;;;51.72;30.00;;;0.90;99.90;;;;;;4992583;28;20466;-68
2021/12/29 06:12:24;;;;;;;56.28;35.03;;;0.90;99.90;;;;;;4988914;28;20050;-68
2021/12/29 06:14:51;;;;;;;49.72;32.95;;;0.90;99.90;;;;;;4993260;28;20787;-67
2021/12/29 06:17:18;;;;;;;44.80;30.45;;;0.90;99.90;;;;;;4990202;28;20053;-66
2021/12/29 06:19:45;;;;;;;52.05;32.38;;;0.90;99.90;;;;;;4990930;28;20156;-66
2021/12/29 06:22:12;;;;;;;57.10;32.85;;;0.90;99.90;;;;;;4990395;28;20075;-68
2021/12/29 06:24:41;;;;;;;51.95;32.50;;;0.90;99.90;;;;;;4989287;28;20827;-66
2021/12/29 06:27:09;;;;;;;54.03;36.08;;;0.90;99.90;;;;;;4990140;28;20423;-64
2021/12/29 06:29:36;;;;;;;53.97;33.40;;;0.90;99.90;;;;;;4990091;28;20551;-69
2021/12/29 06:32:04;;;;;;;54.25;34.00;;;0.90;99.90;;;;;;4991975;28;20126;-70
2021/12/29 06:34:31;;;;;;;53.67;33.58;;;0.90;99.90;;;;;;4986875;28;20049;-68
2021/12/29 06:37:03;;;;;;;59.28;36.42;;;0.90;99.90;;;;;;4990514;28;20054;-64
2021/12/29 06:39:30;;;;;;;51.88;34.67;;;0.90;99.90;;;;;;4991380;28;20049;-67
2021/12/29 06:41:57;;;;;;;57.80;37.22;;;0.90;99.90;;;;;;4991082;28;20099;-71
2021/12/29 06:44:24;;;;;;;57.72;34.83;;;0.90;99.90;;;;;;4988386;28;20069;-68
2021/12/29 06:46:50;;;;;;;55.55;33.92;;;0.90;99.90;;;;;;4988843;28;20131;-67
2021/12/29 06:49:17;;;;;;;59.50;35.55;;;0.90;99.90;;;;;;4990792;28;21528;-67
2021/12/29 06:51:45;;;;;;;58.85;37.67;;;1.00;99.90;;;;;;4989285;28;20065;-69
2021/12/29 06:54:12;;;;;;;59.13;36.88;;;0.90;99.90;;;;;;4991300;28;20050;-65
2021/12/29 06:56:39;;;;;;;53.15;34.25;;;1.00;99.90;;;;;;4988582;28;20193;-68
2021/12/29 06:59:06;;;;;;;59.58;36.63;;;1.00;99.90;;;;;;4993677;28;20060;-70
2021/12/29 07:01:33;;;;;;;60.72;37.08;;;1.00;99.90;;;;;;4988245;28;20195;-69
2021/12/29 07:04:00;;;;;;;66.93;36.78;;;1.00;99.90;;;;;;4991713;28;20096;-67
2021/12/29 07:06:27;;;;;;;67.03;38.78;;;1.00;99.90;;;;;;4987386;28;23135;-67
2021/12/29 07:08:54;;;;;;;65.45;39.88;;;1.00;99.90;;;;;;4990787;28;20050;-67
2021/12/29 07:11:21;;;;;;;67.63;37.83;;;1.00;99.90;;;;;;4992001;28;20148;-66
2021/12/29 07:13:49;;;;;;;62.22;35.85;;;1.00;99.90;;;;;;4988897;28;20049;-68
2021/12/29 07:16:16;;;;;;;61.72;36.80;;;1.00;99.90;;;;;;4991446;28;20064;-66
2021/12/29 07:18:43;;;;;;;60.17;37.17;;;0.90;99.90;;;;;;4988135;28;20281;-67
2021/12/29 07:21:10;;;;;;;69.68;38.95;;;0.90;99.90;;;;;;4989785;28;20060;-67
2021/12/29 07:23:37;;;;;;;67.88;38.17;;;1.00;99.90;;;;;;4990089;28;20112;-65
2021/12/29 07:26:03;;;;;;;70.55;38.60;;;1.00;99.90;;;;;;4990456;28;20062;-67
2021/12/29 07:28:30;;;;;;;65.95;38.95;;;1.00;99.90;;;;;;4986942;28;20041;-68
2021/12/29 07:30:57;;;;;;;58.33;35.95;;;0.90;99.90;;;;;;4989237;28;20062;-70
2021/12/29 07:33:24;;;;;;;73.68;40.35;;;1.00;99.90;;;;;;4991299;28;20080;-66
2021/12/29 07:35:51;;;;;;;61.05;37.40;;;1.00;99.90;;;;;;4991177;28;20058;-66
2021/12/29 07:38:18;;;;;;;60.17;37.97;;;1.00;99.90;;;;;;4987922;28;20122;-68
2021/12/29 07:40:45;;;;;;;64.25;37.65;;;0.90;99.90;;;;;;4989992;28;20769;-69
2021/12/29 07:43:12;;;;;;;64.45;37.05;;;1.00;99.90;;;;;;4988329;28;20100;-67
2021/12/29 07:45:42;;;;;;;70.35;39.50;;;1.00;99.90;;;;;;4971909;28;20464;-66
2021/12/29 07:48:10;;;;;;;65.07;39.28;;;1.00;99.90;;;;;;4971245;28;20054;-71
2021/12/29 07:50:38;;;;;;;75.05;42.00;;;0.90;99.90;;;;;;4988748;28;20056;-70
2021/12/29 07:53:05;;;;;;;72.82;40.30;;;0.90;99.90;;;;;;4988923;28;20065;-65
2021/12/29 07:55:32;;;;;;;64.13;39.88;;;0.90;99.90;;;;;;4989230;28;20141;-70
2021/12/29 07:57:59;;;;;;;67.07;38.75;;;0.90;99.90;;;;;;4985925;28;20096;-66
2021/12/29 08:00:27;;;;;;;66.72;39.42;;;1.00;99.90;;;;;;4987203;28;20049;-66
2021/12/29 08:02:55;;;;;;;64.70;39.63;;;0.90;99.90;;;;;;4992460;28;20042;-68
2021/12/29 08:05:22;;;;;;;60.60;37.33;;;0.90;99.90;;;;;;4989171;28;20050;-68
2021/12/29 08:07:50;;;;;;;65.05;37.75;;;0.90;99.90;;;;;;4989656;28;21445;-66
2021/12/29 08:10:17;;;;;;;66.78;37.25;;;0.90;99.90;;;;;;4988656;28;20057;-71
2021/12/29 08:12:44;;;;;;;65.47;38.30;;;1.00;99.90;;;;;;4985105;28;20783;-68
2021/12/29 08:15:11;;;;;;;65.50;38.90;;;1.00;99.90;;;;;;4989908;28;20149;-68
2021/12/29 08:17:39;;;;;;;60.42;37.20;;;1.00;99.90;;;;;;4987961;28;20482;-65
2021/12/29 08:20:08;;;;;;;70.10;40.60;;;1.00;99.90;;;;;;4991077;28;20160;-70
2021/12/29 08:22:35;;;;;;;68.85;39.60;;;1.00;99.90;;;;;;4987457;28;20053;-70
2021/12/29 08:25:03;;;;;;;60.38;37.28;;;1.00;99.90;;;;;;4989034;28;20144;-70
2021/12/29 08:27:30;;;;;;;66.03;40.08;;;1.00;99.90;;;;;;4988511;28;20120;-67
2021/12/29 08:29:57;;;;;;;61.97;37.40;;;1.00;99.90;;;;;;4992571;28;20060;-67
2021/12/29 08:32:24;;;;;;;71.10;40.55;;;1.00;99.90;;;;;;4992991;28;20239;-66
2021/12/29 08:34:50;;;;;;;56.10;36.10;;;1.00;99.90;;;;;;4989185;28;20140;-66
2021/12/29 08:37:18;;;;;;;65.53;36.92;;;1.00;99.90;;;;;;4994686;28;20145;-66
2021/12/29 08:39:45;;;;;;;70.85;40.17;;;1.00;99.90;;;;;;4992915;28;20053;-68
2021/12/29 08:42:12;;;;;;;70.85;39.45;;;1.00;99.90;;;;;;4993076;28;20740;-65
2021/12/29 08:44:42;;;;;;;68.25;38.88;;;1.00;99.90;;;;;;4993259;28;20078;-71
2021/12/29 08:47:09;;;;;;;68.95;40.45;;;1.00;99.90;;;;;;4992029;28;20115;-69
2021/12/29 08:49:36;;;;;;;72.88;40.15;;;1.00;99.90;;;;;;4993768;28;20367;-67
2021/12/29 08:52:04;;;;;;;68.00;39.35;;;1.00;99.90;;;;;;4993166;28;20053;-68
2021/12/29 08:54:32;;;;;;;67.43;40.38;;;1.10;99.90;;;;;;4993009;28;20564;-68
2021/12/29 08:56:59;;;;;;;69.88;39.67;;;1.10;99.90;;;;;;4993924;28;20148;-65
2021/12/29 08:59:26;;;;;;;64.85;37.33;;;1.10;99.90;;;;;;4989960;28;20054;-66
2021/12/29 09:01:53;;;;;;;67.13;38.03;;;1.10;99.90;;;;;;4992342;28;20247;-67
2021/12/29 09:04:20;;;;;;;77.15;40.72;;;1.10;99.90;;;;;;4990519;28;20143;-65
2021/12/29 09:06:47;;;;;;;78.20;40.15;;;1.10;99.90;;;;;;4993561;28;20685;-67
2021/12/29 09:09:14;;;;;;;73.80;39.65;;;1.10;99.90;;;;;;4992307;28;20141;-69
2021/12/29 09:11:42;;;;;;;68.10;40.75;;;1.10;99.90;;;;;;4992664;28;20058;-67
2021/12/29 09:14:09;;;;;;;73.13;38.58;;;1.10;99.90;;;;;;4993781;28;20123;-69
2021/12/29 09:16:36;;;;;;;63.33;37.75;;;1.10;99.90;;;;;;4988844;28;20145;-65
2021/12/29 09:19:03;;;;;;;69.97;40.20;;;1.10;99.90;;;;;;4990108;28;20050;-66
2021/12/29 09:21:33;;;;;;;65.78;36.08;;;1.10;99.90;;;;;;4988011;28;20133;-66
2021/12/29 09:24:00;;;;;;;67.18;40.72;;;1.20;99.90;;;;;;4994151;28;20054;-64
2021/12/29 09:26:27;;;;;;;70.72;40.55;;;1.20;99.90;;;;;;4989134;28;20136;-66
2021/12/29 09:28:54;;;;;;;70.88;37.58;;;1.10;99.90;;;;;;4991996;28;20377;-68
2021/12/29 09:31:21;;;;;;;69.07;38.10;;;1.10;99.90;;;;;;4991240;28;20148;-70
2021/12/29 09:33:48;;;;;;;66.93;36.30;;;1.20;99.90;;;;;;4991713;28;20081;-66
2021/12/29 09:36:15;;;;;;;65.40;38.13;;;1.20;99.90;;;;;;4992794;28;20253;-66
2021/12/29 09:38:43;;;;;;;65.32;38.35;;;1.20;99.90;;;;;;4987531;28;20140;-68
2021/12/29 09:41:16;;;;;;;71.35;37.45;;;1.20;99.90;;;;;;4992685;28;20076;-64
2021/12/29 09:43:45;;;;;;;66.53;36.95;;;1.20;99.90;;;;;;4992268;28;21777;-66
2021/12/29 09:46:12;;;;;;;62.92;37.42;;;1.20;99.90;;;;;;4991752;28;20054;-66
2021/12/29 09:48:40;;;;;;;67.25;38.30;;;1.20;99.90;;;;;;4992209;28;20054;-66
2021/12/29 09:51:13;;;;;;;64.32;36.08;;;1.20;99.90;;;;;;4990206;28;20140;-69
2021/12/29 09:53:41;;;;;;;70.53;37.47;;;1.20;99.90;;;;;;4993443;28;20085;-68
2021/12/29 09:56:10;;;;;;;66.00;36.00;;;1.20;99.90;;;;;;4994010;28;20139;-65
2021/12/29 09:58:40;;;;;;;62.45;38.60;;;1.20;99.90;;;;;;4989618;28;20071;-71
2021/12/29 10:01:09;;;;;;;65.38;36.72;;;1.20;99.90;;;;;;4990762;28;20077;-69
2021/12/29 10:03:37;;;;;;;61.55;36.00;;;1.20;99.90;;;;;;4992884;28;20067;-65
2021/12/29 10:06:07;;;;;;;65.18;37.90;;;1.30;99.90;;;;;;4991216;28;20057;-68
2021/12/29 10:08:39;;;;;;;62.78;36.25;;;1.30;99.90;;;;;;4990087;28;20148;-66
2021/12/29 10:11:32;;;;;;;60.30;37.63;;;1.30;99.90;;;;;;4993316;28;20137;-66
2021/12/29 10:13:59;;;;;;;70.07;38.05;;;1.30;99.90;;;;;;4985488;28;20139;-66
2021/12/29 10:16:29;;;;;;;67.88;38.47;;;1.20;99.90;;;;;;4987459;28;20141;-66
2021/12/29 10:19:12;;;;;;;54.67;31.98;;;1.20;99.90;;;;;;4991773;28;20054;-67
2021/12/29 10:21:45;;;;;;;69.43;38.08;;;1.30;99.90;;;;;;4991773;28;21336;-67
2021/12/29 10:24:13;;;;;;;63.80;40.95;;;1.30;99.90;;;;;;4987932;28;20066;-66
2021/12/29 10:26:43;;;;;;;65.45;35.60;;;1.30;99.90;;;;;;4988377;28;20064;-66
2021/12/29 10:29:16;;;;;;;62.05;37.67;;;1.30;99.90;;;;;;4990019;28;20054;-68
2021/12/29 10:31:50;;;;;;;67.93;37.58;;;1.30;99.90;;;;;;4989783;28;20168;-68
2021/12/29 10:34:29;;;;;;;71.05;38.65;;;1.20;99.90;;;;;;4992760;28;20172;-70
2021/12/29 10:37:01;;;;;;;62.58;36.88;;;1.30;99.90;;;;;;4986984;28;20046;-66
2021/12/29 10:39:41;;;;;;;57.78;35.17;;;1.30;99.90;;;;;;4989523;28;20132;-69
2021/12/29 10:42:13;;;;;;;66.30;36.70;;;1.30;99.90;;;;;;4990514;28;20108;-68
2021/12/29 10:44:42;;;;;;;58.85;35.90;;;1.30;99.90;;;;;;4988500;28;21147;-67
2021/12/29 10:47:18;;;;;;;63.20;37.30;;;1.30;99.90;;;;;;4991411;28;20140;-70
2021/12/29 10:50:08;;;;;;;69.85;38.88;;;1.30;99.90;;;;;;4992693;28;20196;-64
2021/12/29 10:52:38;;;;;;;;;;;1.20;99.90;;;;;;4990004;28;20065;-71
2021/12/29 10:55:14;;;;;;;61.75;35.20;;;1.30;99.90;;;;;;4991369;28;19929;-66
2021/12/29 10:57:42;;;;;;;67.68;37.45;;;1.30;99.90;;;;;;4990577;28;20054;-66
2021/12/29 11:00:29;;;;;;;61.13;35.85;;;1.30;99.90;;;;;;4990230;28;20988;-68
2021/12/29 11:03:09;;;;;;;62.63;39.50;;;1.30;99.90;;;;;;4992794;28;20148;-66
2021/12/29 11:05:47;;;;;;;65.57;37.38;;;1.30;99.90;;;;;;4990342;28;20049;-67
2021/12/29 11:08:15;;;;;;;60.05;36.83;;;1.30;99.90;;;;;;4991157;28;20459;-68
2021/12/29 11:10:44;;;;;;;63.13;36.17;;;1.30;99.90;;;;;;4988262;28;20190;-68
2021/12/29 11:13:12;;;;;;;61.80;38.28;;;1.30;99.90;;;;;;4989708;28;20389;-68
2021/12/29 11:15:41;;;;;;;58.50;36.13;;;1.30;99.90;;;;;;4990169;28;20081;-68
2021/12/29 11:18:12;;;;;;;66.68;39.22;;;1.30;99.90;;;;;;4989315;28;20172;-65
2021/12/29 11:20:40;;;;;;;59.95;34.72;;;1.30;99.90;;;;;;4989946;28;20053;-64
2021/12/29 11:23:11;;;;;;;62.13;35.85;;;1.30;99.90;;;;;;4990993;28;20081;-65
2021/12/29 11:25:40;;;;;;;65.15;37.50;;;1.30;99.90;;;;;;4991316;28;20136;-65
2021/12/29 11:28:07;;;;;;;55.92;36.35;;;1.30;99.90;;;;;;4990834;28;20136;-65
2021/12/29 11:30:39;;;;;;;61.25;36.90;;;1.30;99.90;;;;;;4984765;28;21351;-68
2021/12/29 11:33:09;;;;;;;63.58;33.25;;;1.30;99.90;;;;;;4988839;28;20785;-69
2021/12/29 11:35:43;;;;;;;58.08;33.95;;;1.30;99.90;;;;;;4985020;28;20072;-65
2021/12/29 11:38:11;;;;;;;62.65;36.53;;;1.40;99.90;;;;;;4990656;28;20116;-67
2021/12/29 11:40:41;;;;;;;64.78;35.05;;;1.40;99.90;;;;;;4985063;28;20192;-67
2021/12/29 11:43:09;;;;;;;66.90;37.90;;;1.40;99.90;;;;;;4985709;28;20136;-70
2021/12/29 11:45:37;;;;;;;62.50;36.85;;;1.40;99.90;;;;;;4988741;28;20085;-68
2021/12/29 11:48:05;;;;;;;70.15;38.67;;;1.30;99.90;;;;;;4988102;28;20483;-68
2021/12/29 11:50:34;;;;;;;64.35;38.35;;;1.40;99.90;;;;;;4987976;28;20081;-68
2021/12/29 11:53:35;;;;;;;67.63;38.03;;;1.40;99.90;;;;;;4991123;28;20396;-68
2021/12/29 11:56:08;;;;;;;;;;;1.40;99.90;;;;;;4992509;28;21074;-65
2021/12/29 11:58:41;;;;;;;63.03;35.45;;;1.40;99.90;;;;;;4989502;28;19930;-66
2021/12/29 12:01:17;;;;;;;65.47;37.58;;;1.40;99.90;;;;;;4988473;28;20153;-66
2021/12/29 12:04:04;;;;;;;;;;;1.40;99.90;;;;;;4993189;28;20064;-69
2021/12/29 12:06:43;;;;;;;54.63;32.78;;;1.40;99.90;;;;;;4991974;28;19964;-67
2021/12/29 12:09:13;;;;;;;58.10;34.60;;;1.40;99.90;;;;;;4993186;28;20054;-70
2021/12/29 12:11:49;;;;;;;62.78;34.60;;;1.40;99.90;;;;;;4994785;28;20520;-67
2021/12/29 12:14:25;;;;;;;65.80;38.15;;;1.40;99.90;;;;;;4993151;28;20058;-67
2021/12/29 12:16:58;;;;;;;58.53;34.13;;;1.40;99.90;;;;;;4991537;28;20094;-69
2021/12/29 12:19:28;;;;;;;60.90;35.78;;;1.40;99.90;;;;;;4995566;28;20092;-69
2021/12/29 12:22:18;;;;;;;56.70;32.77;;;1.40;99.90;;;;;;4993880;28;20668;-65
2021/12/29 12:24:51;;;;;;;52.72;33.40;;;1.30;99.90;;;;;;4993659;28;20330;-65
2021/12/29 12:27:35;;;;;;;54.95;34.45;;;1.40;99.90;;;;;;4994536;28;20129;-68
2021/12/29 12:30:15;;;;;;;68.57;34.08;;;1.40;99.90;;;;;;4989792;28;20095;-68
2021/12/29 12:32:51;;;;;;;54.20;32.17;;;1.40;99.90;;;;;;4993409;28;20060;-66
2021/12/29 12:35:48;;;;;;;64.38;37.67;;;1.30;99.90;;;;;;4991303;28;20050;-68
2021/12/29 12:38:21;;;;;;;59.28;32.10;;;1.30;99.90;;;;;;4994806;28;20566;-69
2021/12/29 12:41:13;;;;;;;65.55;36.42;;;1.30;99.90;;;;;;4989372;28;20507;-66
2021/12/29 12:44:00;;;;;;;65.25;34.97;;;1.30;99.90;;;;;;4991186;28;20054;-70
2021/12/29 12:46:33;;;;;;;65.43;36.63;;;1.30;99.90;;;;;;4989253;28;20129;-68
2021/12/29 12:49:31;;;;;;;60.38;35.47;;;1.30;99.90;;;;;;4988580;28;20133;-69
2021/12/29 12:52:05;;;;;;;59.63;35.28;;;1.30;99.90;;;;;;4992302;28;20058;-69
2021/12/29 12:54:43;;;;;;;63.90;34.70;;;1.30;99.90;;;;;;4991248;28;20140;-71
2021/12/29 12:57:10;;;;;;;59.88;34.17;;;1.30;99.90;;;;;;4992608;28;20060;-68
2021/12/29 12:59:39;;;;;;;58.17;35.20;;;1.30;99.90;;;;;;4991457;28;20046;-69
2021/12/29 13:02:14;;;;;;;59.58;35.58;;;1.30;99.90;;;;;;4993509;28;20104;-66